sensor_id;sensor_type;location;lat;lon;timestamp;P1;durP1;ratioP1;P2;durP2;ratioP2
1308;SDS011;647;48.840;9.314;2024-02-15T21:27:58;67.90;;;16.30;;
1308;SDS011;647;48.840;9.314;2024-02-15T21:30:25;63.20;;;9.07;;
1308;SDS011;647;48.840;9.314;2024-02-15T21:32:54;62.60;;;7.50;;
1308;SDS011;647;48.840;9.314;2024-02-15T21:35:57;61.90;;;7.33;;
1308;SDS011;647;48.840;9.314;2024-02-15T21:38:24;62.50;;;7.30;;
1308;SDS011;647;48.840;9.314;2024-02-15T21:40:51;62.50;;;7.37;;
1308;SDS011;647;48.840;9.314;2024-02-15T21:43:18;61.37;;;6.80;;
1308;SDS011;647;48.840;9.314;2024-02-15T21:45:45;65.40;;;7.10;;
1308;SDS011;647;48.840;9.314;2024-02-15T21:48:13;61.70;;;7.30;;
1308;SDS011;647;48.840;9.314;2024-02-15T21:50:40;60.57;;;6.83;;
1308;SDS011;647;48.840;9.314;2024-02-15T21:53:08;63.67;;;6.90;;
1308;SDS011;647;48.840;9.314;2024-02-15T21:55:37;60.67;;;6.77;;
1308;SDS011;647;48.840;9.314;2024-02-15T21:58:04;62.07;;;6.67;;
1308;SDS011;647;48.840;9.314;2024-02-15T22:00:31;61.57;;;7.60;;
1308;SDS011;647;48.840;9.314;2024-02-15T22:02:58;63.67;;;7.30;;
1308;SDS011;647;48.840;9.314;2024-02-15T22:05:26;59.80;;;7.13;;
1308;SDS011;647;48.840;9.314;2024-02-15T22:07:54;62.77;;;7.13;;
1308;SDS011;647;48.840;9.314;2024-02-15T22:10:22;63.83;;;7.70;;
1308;SDS011;647;48.840;9.314;2024-02-15T22:12:50;60.67;;;7.33;;
1308;SDS011;647;48.840;9.314;2024-02-15T22:15:17;65.83;;;7.20;;
1308;SDS011;647;48.840;9.314;2024-02-15T22:17:44;64.20;;;7.27;;
1308;SDS011;647;48.840;9.314;2024-02-15T22:20:11;62.30;;;7.13;;
1308;SDS011;647;48.840;9.314;2024-02-15T22:22:39;60.50;;;7.00;;
1308;SDS011;647;48.840;9.314;2024-02-15T22:25:07;61.10;;;7.10;;
1308;SDS011;647;48.840;9.314;2024-02-15T22:27:37;62.07;;;7.50;;
1308;SDS011;647;48.840;9.314;2024-02-15T22:30:04;69.80;;;7.73;;
1308;SDS011;647;48.840;9.314;2024-02-15T22:32:32;61.47;;;7.20;;
1308;SDS011;647;48.840;9.314;2024-02-15T22:34:59;64.57;;;7.50;;
1308;SDS011;647;48.840;9.314;2024-02-15T22:37:26;65.37;;;6.93;;
1308;SDS011;647;48.840;9.314;2024-02-15T22:39:53;61.90;;;7.43;;
1308;SDS011;647;48.840;9.314;2024-02-15T22:42:20;62.97;;;7.83;;
1308;SDS011;647;48.840;9.314;2024-02-15T22:44:49;61.87;;;7.50;;
1308;SDS011;647;48.840;9.314;2024-02-15T22:47:16;64.67;;;8.30;;
1308;SDS011;647;48.840;9.314;2024-02-15T22:49:43;62.80;;;7.27;;
1308;SDS011;647;48.840;9.314;2024-02-15T22:52:11;60.40;;;6.73;;
1308;SDS011;647;48.840;9.314;2024-02-15T22:54:39;61.00;;;6.77;;
1308;SDS011;647;48.840;9.314;2024-02-15T22:57:11;60.70;;;6.77;;
1308;SDS011;647;48.840;9.314;2024-02-15T22:59:41;63.37;;;6.57;;
1308;SDS011;647;48.840;9.314;2024-02-15T23:02:09;61.50;;;6.70;;
1308;SDS011;647;48.840;9.314;2024-02-15T23:04:36;62.63;;;7.37;;
1308;SDS011;647;48.840;9.314;2024-02-15T23:07:03;63.23;;;6.40;;
1308;SDS011;647;48.840;9.314;2024-02-15T23:09:33;61.27;;;7.00;;
1308;SDS011;647;48.840;9.314;2024-02-15T23:12:00;62.80;;;8.07;;
1308;SDS011;647;48.840;9.314;2024-02-15T23:14:28;59.87;;;6.33;;
1308;SDS011;647;48.840;9.314;2024-02-15T23:16:55;62.40;;;7.60;;
1308;SDS011;647;48.840;9.314;2024-02-15T23:19:23;63.40;;;6.50;;
1308;SDS011;647;48.840;9.314;2024-02-15T23:21:51;63.77;;;7.03;;
1308;SDS011;647;48.840;9.314;2024-02-15T23:24:18;62.57;;;6.90;;
1308;SDS011;647;48.840;9.314;2024-02-15T23:26:45;63.63;;;8.23;;
1308;SDS011;647;48.840;9.314;2024-02-15T23:29:12;62.87;;;6.27;;
1308;SDS011;647;48.840;9.314;2024-02-15T23:31:40;60.33;;;6.00;;
1308;SDS011;647;48.840;9.314;2024-02-15T23:34:08;59.57;;;6.40;;
1308;SDS011;647;48.840;9.314;2024-02-15T23:36:36;62.30;;;6.23;;
1308;SDS011;647;48.840;9.314;2024-02-15T23:39:21;60.27;;;6.70;;
1308;SDS011;647;48.840;9.314;2024-02-15T23:42:10;60.50;;;7.60;;
1308;SDS011;647;48.840;9.314;2024-02-15T23:44:37;60.90;;;6.97;;
1308;SDS011;647;48.840;9.314;2024-02-15T23:47:04;61.37;;;6.83;;
1308;SDS011;647;48.840;9.314;2024-02-15T23:49:31;60.57;;;6.50;;
1308;SDS011;647;48.840;9.314;2024-02-15T23:52:00;64.47;;;7.77;;
1308;SDS011;647;48.840;9.314;2024-02-15T23:54:27;61.77;;;7.13;;
1308;SDS011;647;48.840;9.314;2024-02-15T23:56:54;61.10;;;6.23;;
1308;SDS011;647;48.840;9.314;2024-02-15T23:59:21;64.40;;;7.10;;
